createdAt,value
2019-03-05T00:04:28.546Z,5.53
2019-03-05T00:09:31.140Z,4.53
2019-03-05T00:14:34.338Z,5.00
2019-03-05T00:19:37.233Z,4.80
2019-03-05T00:25:03.141Z,6.53
2019-03-05T00:30:30.273Z,5.87
2019-03-05T00:36:20.982Z,6.10
2019-03-05T00:41:37.329Z,4.90
2019-03-05T00:47:10.095Z,6.33
2019-03-05T00:52:35.347Z,5.37
2019-03-05T00:58:06.996Z,5.90
2019-03-05T01:03:24.220Z,5.70
2019-03-05T01:08:28.657Z,6.40
2019-03-05T01:13:32.305Z,6.63
2019-03-05T01:18:35.505Z,5.53
2019-03-05T01:23:38.779Z,5.87
2019-03-05T01:28:42.018Z,4.33
2019-03-05T01:33:52.682Z,5.20
2019-03-05T01:39:01.962Z,5.80
2019-03-05T01:44:05.579Z,4.93
2019-03-05T01:49:08.780Z,3.87
2019-03-05T01:54:11.590Z,4.70
2019-03-05T01:59:14.818Z,8.07
2019-03-05T02:04:17.855Z,4.67
2019-03-05T02:09:21.200Z,5.10
2019-03-05T02:14:24.124Z,5.83
2019-03-05T02:19:47.564Z,4.60
2019-03-05T02:25:15.532Z,4.63
2019-03-05T02:30:40.935Z,4.80
2019-03-05T02:36:08.465Z,3.77
2019-03-05T02:41:45.117Z,4.47
2019-03-05T02:46:57.467Z,5.23
2019-03-05T02:52:27.631Z,4.73
2019-03-05T02:57:29.466Z,4.80
2019-03-05T03:02:51.947Z,5.37
2019-03-05T03:07:55.253Z,5.10
2019-03-05T03:12:58.110Z,4.90
2019-03-05T03:18:01.694Z,4.87
2019-03-05T03:23:04.542Z,4.67
2019-03-05T03:28:07.837Z,3.80
2019-03-05T03:33:11.095Z,4.60
2019-03-05T03:38:14.272Z,4.70
2019-03-05T03:43:17.762Z,4.50
2019-03-05T03:48:20.806Z,4.93
2019-03-05T03:53:24.318Z,4.93
2019-03-05T03:58:27.580Z,5.00
2019-03-05T04:03:30.433Z,5.13
2019-03-05T04:08:33.383Z,5.07
2019-03-05T04:13:36.218Z,5.47
2019-03-05T04:18:39.143Z,6.00
2019-03-05T04:23:42.652Z,5.50
2019-03-05T04:28:45.688Z,5.13
2019-03-05T04:33:48.551Z,5.10
2019-03-05T04:38:51.771Z,5.70
2019-03-05T04:43:55.276Z,5.57
2019-03-05T04:49:36.601Z,4.50
2019-03-05T04:54:39.492Z,4.40
2019-03-05T04:59:42.703Z,4.40
2019-03-05T05:04:46.109Z,4.30
2019-03-05T05:09:49.653Z,3.23
2019-03-05T05:14:52.553Z,3.73
2019-03-05T05:19:55.761Z,3.80
2019-03-05T05:24:58.385Z,4.30
2019-03-05T05:30:01.603Z,4.80
2019-03-05T05:35:05.029Z,5.40
2019-03-05T05:40:22.936Z,4.07
2019-03-05T05:45:28.660Z,4.40
2019-03-05T05:50:32.228Z,4.87
2019-03-05T05:55:35.122Z,4.20
2019-03-05T06:00:58.528Z,3.73
2019-03-05T06:06:02.016Z,4.17
2019-03-05T06:11:04.917Z,3.40
2019-03-05T06:16:08.432Z,3.87
2019-03-05T06:21:12.062Z,3.87
2019-03-05T06:26:14.861Z,3.60
2019-03-05T06:31:18.154Z,4.00
2019-03-05T06:36:21.731Z,3.83
2019-03-05T06:41:25.003Z,4.03
2019-03-05T06:46:28.307Z,3.80
2019-03-05T06:51:31.530Z,4.10
2019-03-05T06:56:34.401Z,3.40
2019-03-05T07:01:37.227Z,3.60
2019-03-05T07:06:56.009Z,4.77
2019-03-05T07:12:35.393Z,4.40
2019-03-05T07:17:42.606Z,4.72
2019-03-05T07:22:52.672Z,3.37
2019-03-05T07:27:58.013Z,4.60
2019-03-05T07:33:01.003Z,3.03
2019-03-05T07:38:03.926Z,3.27
2019-03-05T07:43:07.112Z,4.37
2019-03-05T07:48:10.013Z,3.60
2019-03-05T07:53:13.224Z,3.30
2019-03-05T07:58:16.144Z,2.83
2019-03-05T08:03:19.317Z,3.63
2019-03-05T08:08:58.792Z,2.93
2019-03-05T08:14:16.263Z,2.97
2019-03-05T08:19:20.986Z,2.93
2019-03-05T08:24:24.177Z,2.40
2019-03-05T08:29:27.707Z,2.33
2019-03-05T08:34:31.032Z,2.53
2019-03-05T08:39:34.538Z,3.57
2019-03-05T08:44:37.448Z,3.70
2019-03-05T08:49:40.980Z,2.80
2019-03-05T08:54:45.458Z,2.80
2019-03-05T08:59:48.426Z,2.27
2019-03-05T09:04:51.909Z,2.90
2019-03-05T09:09:55.241Z,3.33
2019-03-05T09:14:58.395Z,2.70
2019-03-05T09:20:01.311Z,3.17
2019-03-05T09:25:05.095Z,2.40
2019-03-05T09:30:11.797Z,4.43
2019-03-05T09:35:15.666Z,2.80
2019-03-05T09:40:21.630Z,2.70
2019-03-05T09:45:25.196Z,3.00
2019-03-05T09:50:28.713Z,3.07
2019-03-05T09:55:36.135Z,2.43
2019-03-05T10:00:40.139Z,2.43
2019-03-05T10:05:43.373Z,2.90
2019-03-05T10:10:46.550Z,2.47
2019-03-05T10:15:50.017Z,3.30
2019-03-05T10:20:53.523Z,2.97
2019-03-05T10:25:56.700Z,3.13
2019-03-05T10:31:00.027Z,2.43
2019-03-05T10:36:03.246Z,3.13
2019-03-05T10:41:06.454Z,2.70
2019-03-05T10:46:09.338Z,3.23
2019-03-05T10:51:13.005Z,2.87
2019-03-05T10:56:18.022Z,3.67
2019-03-05T11:01:21.553Z,3.13
2019-03-05T11:06:26.151Z,2.93
2019-03-05T11:11:29.723Z,2.87
2019-03-05T11:16:32.590Z,5.53
2019-03-05T11:21:36.102Z,2.90
2019-03-05T11:26:39.608Z,2.57
2019-03-05T11:31:42.777Z,1.70
2019-03-05T11:36:46.156Z,1.73
2019-03-05T11:41:49.355Z,1.37
2019-03-05T11:46:52.892Z,1.10
2019-03-05T11:51:56.399Z,1.70
2019-03-05T11:57:01.461Z,1.60
2019-03-05T12:02:03.470Z,1.50
2019-03-05T12:07:07.059Z,1.57
2019-03-05T12:12:10.580Z,2.00
2019-03-05T12:17:13.888Z,1.33
2019-03-05T12:22:17.389Z,2.07
2019-03-05T12:27:20.289Z,2.10
2019-03-05T12:32:23.514Z,1.80
2019-03-05T12:37:27.188Z,1.70
2019-03-05T12:42:30.423Z,2.00
2019-03-05T12:47:33.347Z,2.10
2019-03-05T12:52:36.609Z,2.30
2019-03-05T12:57:39.882Z,2.50
2019-03-05T13:02:42.780Z,2.97
2019-03-05T13:07:45.764Z,3.67
2019-03-05T13:12:48.582Z,2.87
2019-03-05T13:17:52.845Z,2.50
2019-03-05T13:22:56.510Z,3.07
2019-03-05T13:28:01.941Z,3.60
2019-03-05T13:33:04.145Z,2.33
2019-03-05T13:38:09.385Z,2.17
2019-03-05T13:43:12.840Z,3.10
2019-03-05T13:48:34.785Z,3.10
2019-03-05T13:54:05.429Z,3.17
2019-03-05T14:00:02.893Z,2.50
2019-03-05T14:05:33.698Z,2.80
2019-03-05T14:10:37.371Z,2.47
2019-03-05T14:15:41.766Z,2.87
2019-03-05T14:20:45.666Z,3.40
2019-03-05T14:25:48.611Z,2.73
2019-03-05T14:30:51.494Z,2.07
2019-03-05T14:35:55.261Z,3.67
2019-03-05T14:40:58.371Z,3.13
2019-03-05T14:46:01.381Z,4.00
2019-03-05T14:51:05.240Z,3.37
2019-03-05T14:56:08.094Z,2.20
2019-03-05T15:01:11.570Z,3.30
2019-03-05T15:06:15.134Z,3.00
2019-03-05T15:11:18.121Z,3.40
2019-03-05T15:16:21.198Z,3.23
2019-03-05T15:21:24.438Z,3.20
2019-03-05T15:26:27.698Z,2.93
2019-03-05T15:31:30.978Z,2.67
2019-03-05T15:36:34.287Z,3.30
2019-03-05T15:41:37.771Z,3.17
2019-03-05T15:46:41.378Z,3.00
2019-03-05T15:51:44.694Z,2.90
2019-03-05T15:56:47.910Z,3.80
2019-03-05T16:01:51.189Z,2.83
2019-03-05T16:06:54.447Z,3.37
2019-03-05T16:11:57.939Z,2.67
2019-03-05T16:17:01.554Z,2.57
2019-03-05T16:22:04.782Z,3.00
2019-03-05T16:27:08.095Z,4.17
2019-03-05T16:32:23.047Z,3.97
2019-03-05T16:38:02.825Z,3.27
2019-03-05T16:43:17.920Z,2.50
2019-03-05T16:48:30.965Z,3.93
2019-03-05T16:53:55.486Z,3.50
2019-03-05T16:59:16.606Z,2.97
2019-03-05T17:04:41.372Z,3.33
2019-03-05T17:10:04.204Z,3.70
2019-03-05T17:15:08.159Z,3.50
2019-03-05T17:20:11.444Z,2.10
2019-03-05T17:25:15.929Z,3.10
2019-03-05T17:30:19.665Z,3.00
2019-03-05T17:35:23.206Z,4.37
2019-03-05T17:40:26.514Z,3.83
2019-03-05T17:45:30.111Z,4.07
2019-03-05T17:50:34.372Z,4.30
2019-03-05T17:55:37.999Z,3.07
2019-03-05T18:00:43.277Z,3.80
2019-03-05T18:05:46.494Z,3.20
2019-03-05T18:10:50.331Z,3.70
2019-03-05T18:15:53.524Z,4.20
2019-03-05T18:20:56.733Z,3.87
2019-03-05T18:26:00.142Z,3.80
2019-03-05T18:31:03.736Z,4.87
2019-03-05T18:36:09.487Z,3.60
2019-03-05T18:41:13.336Z,3.60
2019-03-05T18:46:19.287Z,3.50
2019-03-05T18:51:24.313Z,3.83
2019-03-05T18:56:30.663Z,3.00
2019-03-05T19:01:36.056Z,4.37
2019-03-05T19:06:39.531Z,4.43
2019-03-05T19:11:47.202Z,5.07
2019-03-05T19:16:54.042Z,4.07
2019-03-05T19:22:00.675Z,5.17
2019-03-05T19:27:07.972Z,4.40
2019-03-05T19:32:16.298Z,3.70
2019-03-05T19:37:23.975Z,3.77
2019-03-05T19:42:31.117Z,3.73
2019-03-05T19:47:41.867Z,3.30
2019-03-05T19:52:48.680Z,4.23
2019-03-05T19:58:08.433Z,3.97
2019-03-05T20:03:15.579Z,3.63
2019-03-05T20:08:23.323Z,3.27
2019-03-05T20:13:32.074Z,4.10
2019-03-05T20:18:39.910Z,4.10
2019-03-05T20:23:49.985Z,5.30
2019-03-05T20:28:58.277Z,5.40
2019-03-05T20:34:04.722Z,4.27
2019-03-05T20:39:12.473Z,4.40
2019-03-05T20:44:19.629Z,4.07
2019-03-05T20:49:29.039Z,4.03
2019-03-05T20:54:35.638Z,5.03
2019-03-05T20:59:43.494Z,4.90
2019-03-05T21:04:52.752Z,4.17
2019-03-05T21:10:02.459Z,6.23
2019-03-05T21:15:12.154Z,3.57
2019-03-05T21:20:18.965Z,4.87
2019-03-05T21:25:28.538Z,4.40
2019-03-05T21:30:37.976Z,4.00
2019-03-05T21:35:45.874Z,4.83
2019-03-05T21:40:52.611Z,4.50
2019-03-05T21:46:01.321Z,3.00
2019-03-05T21:51:08.958Z,4.20
2019-03-05T21:56:14.308Z,3.17
2019-03-05T22:01:18.127Z,3.23
2019-03-05T22:06:21.877Z,3.47
2019-03-05T22:11:24.968Z,5.63
2019-03-05T22:16:28.203Z,3.87
2019-03-05T22:21:32.554Z,4.67
2019-03-05T22:26:35.849Z,4.83
2019-03-05T22:31:39.500Z,4.77
2019-03-05T22:36:43.078Z,3.90
2019-03-05T22:41:46.760Z,3.80
2019-03-05T22:46:50.007Z,4.50
2019-03-05T22:51:53.683Z,5.13
2019-03-05T22:56:56.890Z,5.27
2019-03-05T23:02:00.343Z,3.80
2019-03-05T23:07:04.565Z,4.40
2019-03-05T23:12:08.665Z,5.70
2019-03-05T23:17:12.362Z,4.60
2019-03-05T23:22:15.594Z,4.30
2019-03-05T23:27:19.272Z,5.70
2019-03-05T23:32:22.814Z,4.47
2019-03-05T23:37:26.344Z,4.77
2019-03-05T23:42:29.907Z,5.30
2019-03-05T23:47:33.269Z,5.70
2019-03-05T23:52:36.836Z,4.90
2019-03-05T23:57:40.151Z,6.20
